Little Rock, AR (72210)

6:37 AM CST on December 27, 2014 (GMT -0600)
Vimy Ridge Community | Change Station
CLOSE
Current Station
Personal Weather Station
Location: Mabelvale, AR
Elevation: 374 ft
Nearby Weather Stations

Elev 374 ft 34.60 °N, 92.40 °W | Updated 7 minutes ago

Overcast
Overcast
55.0 °F
Feels Like 55.0 °F
N
0.0
Wind Variable Wind from SW
Gusts 2.0 mph

Today
High -- | Low -- °F
--% Chance of Precip.
Yesterday
High -- | Low -- °F
Precip. -- in
7:15 AM 5:06 PM
Waxing Crescent, 36% visible
Pressure 30.08 in
Visibility 2.0 miles
Clouds Overcast 400 ft
Dew Point 54 °F
Humidity 98%
Rainfall 0.91 in
Snow Depth Not available.
UV 0 out of 12
Pollen .70 out of 12
Air Quality Not available.
Flu Activity Not available.
SPECI KLIT 271228Z 15005KT 2SM -DZ BR OVC004 13/11 A3008 RMK AO2 SFC VIS 2 1/2 RAE05DZB26 P0000 $

More Conditions Fewer Conditions

Pressure 30.08 in
Visibility 2.0 miles
Clouds Overcast 400 ft
Dew Point 54 °F
Humidity 98%
Rainfall 0.91 in
Snow Depth Not available.
UV 0 out of 12
Pollen .70 out of 12
Air Quality Not available.
Flu Activity Not available.
SPECI KLIT 271228Z 15005KT 2SM -DZ BR OVC004 13/11 A3008 RMK AO2 SFC VIS 2 1/2 RAE05DZB26 P0000 $

More Conditions Fewer Conditions

10-Day Weather Forecast

Almanac

Astronomy

Dec. 27, 2014 Rise Set
Actual Time
Civil Twilight
Nautical Twilight
Astronomical Twilight
Moon
Length of Visible Light
Length of Day
Tomorrow will be .
, % of the Moon is Illuminated

Today's Extremes

State Highs State Lows

Community

WunderPhotos

Upload Photos

1,780,886 photos uploaded!

WunderBlogs® & News

Nearby

Air Quality

  Air Quality AQ Index Pollutant
Not available.

Snow Depth

Station Depth Elevation

Earthquake Activity

City Distance Mag. Time & Date
Minimum magnitude displayed is 2.5.

Coastal Water Temperatures

Place Temperature

Nearby Weather Stations